Time;durP1;ratioP1;P1;durP2;ratioP2;P2;SDS_P1;SDS_P2;PMS_P1;PMS_P2;Temp;Humidity;BMP_temperature;BMP_pressure;BME280_temperature;BME280_humidity;BME280_pressure;Samples;Min_cycle;Max_cycle;Signal;HPM_P1;HPM_P2
2021/05/25 00:08:00;;;;;;;2.03;0.63;;;8.80;99.90;;;;;;20997458;28;20035;-77
2021/05/25 00:18:02;;;;;;;4.18;0.90;;;8.50;99.90;;;;;;20996799;28;20089;-78
2021/05/25 00:28:03;;;;;;;4.75;1.00;;;8.40;99.90;;;;;;20995828;28;20029;-77
2021/05/25 00:38:04;;;;;;;2.83;0.63;;;8.20;99.90;;;;;;20994698;28;20115;-77
2021/05/25 00:48:06;;;;;;;1.10;0.40;;;8.10;99.90;;;;;;20977586;28;20085;-77
2021/05/25 00:58:10;;;;;;;1.48;0.47;;;8.10;99.90;;;;;;20993338;28;20173;-77
2021/05/25 01:08:12;;;;;;;4.00;0.85;;;8.10;99.90;;;;;;20992026;28;20024;-77
2021/05/25 01:18:14;;;;;;;1.65;0.63;;;7.90;99.90;;;;;;20992435;28;20115;-77
2021/05/25 01:28:18;;;;;;;4.17;1.00;;;7.70;99.90;;;;;;20974140;28;20028;-77
2021/05/25 01:38:20;;;;;;;5.50;0.77;;;7.60;99.90;;;;;;20991186;28;20066;-77
2021/05/25 01:48:21;;;;;;;9.30;1.13;;;7.50;99.90;;;;;;20991672;28;20400;-77
2021/05/25 01:58:24;;;;;;;5.33;1.03;;;7.40;99.90;;;;;;20992837;28;20033;-77
2021/05/25 02:08:26;;;;;;;5.63;1.35;;;7.40;99.90;;;;;;20990309;28;20028;-78
2021/05/25 02:18:32;;;;;;;5.93;1.35;;;7.40;99.90;;;;;;21004209;28;20032;-77
2021/05/25 02:28:34;;;;;;;4.78;0.82;;;7.30;99.90;;;;;;21007550;28;20040;-78
2021/05/25 02:38:34;;;;;;;;;;;7.40;99.90;;;;;;20988146;28;20101;-77
2021/05/25 02:48:35;;;;;;;10.65;1.40;;;7.30;99.90;;;;;;21005561;28;19952;-77
2021/05/25 02:58:36;;;;;;;5.77;1.50;;;7.30;99.90;;;;;;21004348;28;20020;-77
2021/05/25 03:08:37;;;;;;;8.10;1.07;;;7.30;99.90;;;;;;21003156;28;20028;-77
2021/05/25 03:18:38;;;;;;;6.07;1.27;;;7.40;99.90;;;;;;20984387;28;20036;-77
2021/05/25 03:28:39;;;;;;;8.97;1.50;;;7.40;99.90;;;;;;20982568;28;20032;-77
2021/05/25 03:38:40;;;;;;;10.10;1.30;;;7.40;99.90;;;;;;21000023;28;20036;-77
2021/05/25 03:48:40;;;;;;;10.87;1.10;;;7.40;99.90;;;;;;20999325;28;20035;-77
2021/05/25 03:58:52;;;;;;;4.70;1.13;;;7.40;99.90;;;;;;20998401;28;20032;-77
2021/05/25 04:08:53;;;;;;;;;;;7.50;99.90;;;;;;20998569;28;20025;-77
2021/05/25 04:18:54;;;;;;;9.98;1.73;;;7.40;99.90;;;;;;20999962;28;19923;-77
2021/05/25 04:28:55;;;;;;;4.10;0.67;;;7.50;99.90;;;;;;21082682;22;20672;-78
2021/05/25 04:38:56;;;;;;;4.80;1.20;;;7.50;99.90;;;;;;21102856;28;20081;-78
2021/05/25 04:48:57;;;;;;;1.80;0.83;;;7.60;99.90;;;;;;21100820;28;20032;-77
2021/05/25 04:58:57;;;;;;;8.20;1.10;;;7.60;99.90;;;;;;21099996;28;20032;-77
2021/05/25 05:08:58;;;;;;;9.87;1.50;;;7.40;99.90;;;;;;21100116;28;20460;-77
2021/05/25 05:18:59;;;;;;;9.20;1.80;;;7.50;99.90;;;;;;21100095;28;20364;-78
2021/05/25 05:29:00;;;;;;;20.00;1.80;;;7.60;99.90;;;;;;21099900;28;20028;-77
2021/05/25 05:39:02;;;;;;;6.40;1.10;;;7.90;99.90;;;;;;21093894;28;20032;-77
2021/05/25 05:49:03;;;;;;;10.88;1.40;;;8.00;99.90;;;;;;21079072;28;20039;-77
2021/05/25 05:59:04;;;;;;;2.37;1.23;;;8.40;99.90;;;;;;21090128;28;20111;-78
2021/05/25 06:09:05;;;;;;;3.93;1.33;;;8.40;99.90;;;;;;21091441;28;20074;-77
2021/05/25 06:19:06;;;;;;;9.23;1.37;;;9.10;99.90;;;;;;21089596;28;20070;-77
2021/05/25 06:29:08;;;;;;;10.43;3.27;;;8.80;99.90;;;;;;21087480;28;20339;-77
2021/05/25 06:39:08;;;;;;;4.75;1.35;;;7.60;99.90;;;;;;21087387;28;20043;-77
2021/05/25 06:49:11;;;;;;;13.33;3.60;;;8.70;99.90;;;;;;21092291;28;20036;-78
2021/05/25 06:59:12;;;;;;;21.63;2.75;;;9.70;99.90;;;;;;21096474;28;20092;-78
2021/05/25 07:09:13;;;;;;;11.97;1.20;;;10.40;99.90;;;;;;21078261;28;20032;-78
2021/05/25 07:19:14;;;;;;;2.27;0.77;;;10.70;99.90;;;;;;21091509;28;20570;-78
2021/05/25 07:29:15;;;;;;;5.37;1.10;;;11.20;99.90;;;;;;21143699;28;20031;-78
2021/05/25 07:39:16;;;;;;;5.20;1.27;;;11.40;99.90;;;;;;21170903;28;20036;-78
2021/05/25 07:49:17;;;;;;;4.50;1.10;;;11.60;99.90;;;;;;21168980;28;20043;-77
2021/05/25 07:59:18;;;;;;;5.30;0.77;;;11.60;99.90;;;;;;21164923;28;20044;-78
2021/05/25 08:09:19;;;;;;;4.33;0.90;;;12.00;99.90;;;;;;21081761;28;20036;-79
2021/05/25 08:19:28;;;;;;;2.77;0.60;;;12.60;99.90;;;;;;21080430;28;20035;-79
2021/05/25 08:29:29;;;;;;;6.93;0.75;;;12.60;99.90;;;;;;21077530;28;20051;-79
2021/05/25 08:39:29;;;;;;;6.57;0.90;;;12.20;99.90;;;;;;21072626;28;20036;-77
2021/05/25 08:49:30;;;;;;;4.50;1.07;;;11.30;99.90;;;;;;21062883;28;20519;-76
2021/05/25 08:59:31;;;;;;;2.93;0.87;;;12.60;99.90;;;;;;21046897;28;20549;-77
2021/05/25 09:09:33;;;;;;;5.17;1.03;;;13.00;99.90;;;;;;21150102;28;20524;-77
2021/05/25 09:19:44;;;;;;;;;;;13.30;99.90;;;;;;21148047;28;20036;-78
2021/05/25 09:29:49;;;;;;;5.70;0.90;;;14.10;99.90;;;;;;21144367;28;20014;-76
2021/05/25 09:39:53;;;;;;;1.23;0.65;;;14.60;99.90;;;;;;21092618;28;20410;-77
2021/05/25 09:50:01;;;;;;;3.78;0.65;;;15.00;99.90;;;;;;21057483;28;20036;-77
2021/05/25 10:00:29;;;;;;;2.47;0.85;;;14.90;99.90;;;;;;21037791;28;20050;-78
2021/05/25 10:10:32;;;;;;;4.70;1.15;;;14.90;99.90;;;;;;21056133;28;20033;-77
2021/05/25 10:20:33;;;;;;;7.28;1.13;;;14.90;99.90;;;;;;21056317;28;20028;-77
2021/05/25 10:30:39;;;;;;;5.95;0.88;;;15.10;99.90;;;;;;21031904;22;20045;-80
2021/05/25 10:40:52;;;;;;;8.55;1.02;;;14.10;99.90;;;;;;20998312;28;20032;-82
2021/05/25 10:50:54;;;;;;;5.57;0.82;;;15.00;99.90;;;;;;20965403;28;20044;-80
2021/05/25 11:00:55;;;;;;;;;;;14.90;99.90;;;;;;20982846;28;20039;-81
2021/05/25 11:11:05;;;;;;;8.57;0.85;;;14.40;99.90;;;;;;20966288;28;19912;-83
2021/05/25 11:21:30;;;;;;;2.08;0.60;;;13.90;99.90;;;;;;21015572;28;20059;-82
2021/05/25 11:31:39;;;;;;;7.50;0.90;;;14.20;99.90;;;;;;21015248;28;20024;-82
2021/05/25 11:41:40;;;;;;;4.28;0.80;;;14.70;99.90;;;;;;20992363;28;20521;-81
2021/05/25 11:51:42;;;;;;;7.32;0.98;;;14.30;99.90;;;;;;20973918;28;20100;-81
2021/05/25 12:01:51;;;;;;;2.87;0.60;;;13.80;99.90;;;;;;20979744;28;20535;-82
2021/05/25 12:12:08;;;;;;;4.93;0.90;;;16.00;99.90;;;;;;20997253;28;20039;-84
2021/05/25 12:22:09;;;;;;;8.10;1.13;;;16.40;99.90;;;;;;20995844;28;20383;-83
2021/05/25 12:32:10;;;;;;;5.50;0.80;;;16.10;99.90;;;;;;21012543;28;20392;-84
2021/05/25 12:42:18;;;;;;;4.80;0.60;;;16.40;99.90;;;;;;21010777;28;20021;-83
2021/05/25 12:52:25;;;;;;;4.97;0.98;;;15.70;99.90;;;;;;21010900;28;20388;-83
2021/05/25 13:02:51;;;;;;;3.45;0.98;;;14.70;99.90;;;;;;20992912;28;20025;-84
2021/05/25 13:12:56;;;;;;;4.88;0.77;;;14.20;99.90;;;;;;20991547;28;20028;-80
2021/05/25 13:22:57;;;;;;;4.90;0.88;;;14.70;99.90;;;;;;21010494;28;20040;-83
2021/05/25 13:33:12;;;;;;;2.45;0.60;;;16.00;99.90;;;;;;21063563;27;20385;-76
2021/05/25 13:43:13;;;;;;;5.25;0.77;;;16.20;99.90;;;;;;21061747;28;20075;-76
2021/05/25 13:53:14;;;;;;;1.98;0.43;;;15.50;99.90;;;;;;21062021;28;20391;-76
2021/05/25 14:03:14;;;;;;;3.42;0.60;;;14.90;99.90;;;;;;21061518;28;20410;-76
2021/05/25 14:13:16;;;;;;;1.15;0.50;;;16.50;99.90;;;;;;21060849;28;20028;-76
2021/05/25 14:23:18;;;;;;;4.10;0.73;;;16.30;99.90;;;;;;21060217;28;20028;-76
2021/05/25 14:33:20;;;;;;;3.57;0.67;;;15.20;99.90;;;;;;21066828;28;20024;-76
2021/05/25 14:43:21;;;;;;;2.47;0.43;;;16.50;99.90;;;;;;21011748;28;20024;-76
2021/05/25 14:53:32;;;;;;;1.48;0.55;;;15.70;99.90;;;;;;21004772;28;20031;-75
2021/05/25 15:04:11;;;;;;;0.52;0.30;;;16.10;99.90;;;;;;21003151;28;20452;-77
2021/05/25 15:14:00;;;;;;;3.55;1.05;;;15.40;99.90;;;;;;21006708;28;20108;-76
2021/05/25 15:24:00;;;;;;;1.38;0.47;;;16.20;99.90;;;;;;21004902;28;20482;-76
2021/05/25 15:34:01;;;;;;;1.33;0.60;;;16.40;99.40;;;;;;21004331;28;20028;-76
2021/05/25 15:44:03;;;;;;;2.67;0.35;;;16.80;99.90;;;;;;20997410;28;20032;-76
2021/05/25 15:54:05;;;;;;;0.90;0.40;;;16.90;97.20;;;;;;20993954;28;20033;-76
2021/05/25 16:04:06;;;;;;;2.10;0.35;;;16.90;98.10;;;;;;20996148;28;20032;-76
2021/05/25 16:14:08;;;;;;;2.55;0.47;;;16.90;98.70;;;;;;20993264;28;20037;-76
2021/05/25 16:24:10;;;;;;;1.83;0.32;;;16.40;98.80;;;;;;20993926;22;20045;-74
2021/05/25 16:34:11;;;;;;;4.97;0.63;;;16.40;98.30;;;;;;20827968;28;20036;-74
2021/05/25 16:44:12;;;;;;;2.17;0.40;;;16.10;99.90;;;;;;20826970;28;20033;-74
2021/05/25 16:54:13;;;;;;;2.13;0.60;;;16.40;99.90;;;;;;20825410;28;20029;-74
2021/05/25 17:34:42;;;;;;;6.22;0.63;;;15.40;99.90;;;;;;20823081;28;20073;-74
2021/05/25 17:44:42;;;;;;;1.23;0.43;;;15.00;99.90;;;;;;20823760;28;20084;-74
2021/05/25 17:54:43;;;;;;;1.52;0.50;;;14.80;99.90;;;;;;20806174;28;20479;-74
2021/05/25 18:04:44;;;;;;;3.08;0.55;;;14.80;99.90;;;;;;20820828;28;20033;-75
2021/05/25 18:14:45;;;;;;;1.10;0.47;;;14.70;99.90;;;;;;20830425;28;20095;-75
2021/05/25 18:24:46;;;;;;;2.50;0.80;;;14.50;99.90;;;;;;20837800;28;20492;-75
2021/05/25 18:35:11;;;;;;;3.00;0.60;;;14.70;99.90;;;;;;20835880;28;20056;-76
2021/05/25 18:45:11;;;;;;;1.40;0.85;;;14.50;99.90;;;;;;20834913;28;20642;-76
2021/05/25 18:55:13;;;;;;;2.20;0.77;;;14.10;99.90;;;;;;20835745;28;20038;-76
2021/05/25 19:05:14;;;;;;;2.37;0.33;;;13.70;99.90;;;;;;20835265;28;20552;-76
2021/05/25 19:15:16;;;;;;;0.93;0.70;;;13.10;99.90;;;;;;20838794;28;20037;-76
2021/05/25 19:25:22;;;;;;;3.08;0.70;;;12.80;99.90;;;;;;20833317;28;20034;-77
2021/05/25 19:35:24;;;;;;;8.00;1.98;;;12.40;99.90;;;;;;20848270;28;20033;-76
2021/05/25 19:45:26;;;;;;;2.85;0.50;;;12.30;99.90;;;;;;20830768;28;20484;-76
2021/05/25 19:55:27;;;;;;;1.95;0.90;;;12.30;99.90;;;;;;20830076;28;20033;-76
2021/05/25 20:05:28;;;;;;;2.33;0.68;;;12.50;99.90;;;;;;20830685;28;20076;-76
2021/05/25 20:15:29;;;;;;;1.63;0.95;;;12.10;99.90;;;;;;20830250;28;20080;-77
2021/05/25 20:25:30;;;;;;;5.93;0.63;;;11.50;99.90;;;;;;20828485;28;20422;-76
2021/05/25 20:45:51;;;;;;;2.05;0.50;;;11.20;99.90;;;;;;20828830;28;20033;-78
2021/05/25 20:55:51;;;;;;;3.10;0.80;;;10.80;99.90;;;;;;20833796;28;20060;-78
2021/05/25 21:05:52;;;;;;;1.87;0.63;;;9.90;99.90;;;;;;20841339;28;20037;-78
2021/05/25 21:15:53;;;;;;;1.80;0.80;;;9.60;99.90;;;;;;20849996;28;20452;-78
2021/05/25 21:25:55;;;;;;;3.63;0.83;;;9.40;99.90;;;;;;20841318;28;20109;-78
2021/05/25 21:35:56;;;;;;;2.05;0.65;;;9.30;99.90;;;;;;20826331;28;20037;-78
2021/05/25 21:45:57;;;;;;;1.53;0.80;;;9.10;99.90;;;;;;20809066;28;20124;-78
2021/05/25 21:55:58;;;;;;;3.03;0.97;;;8.90;99.90;;;;;;20825903;28;20113;-78
2021/05/25 22:05:59;;;;;;;2.50;0.83;;;8.60;99.90;;;;;;20824302;28;20042;-77
2021/05/25 22:16:00;;;;;;;4.97;0.90;;;8.40;99.90;;;;;;20841160;28;20172;-79
2021/05/25 22:26:00;;;;;;;1.00;0.60;;;8.50;99.90;;;;;;20842726;28;20036;-78
2021/05/25 22:36:02;;;;;;;3.27;0.90;;;8.70;99.90;;;;;;20837706;28;20345;-79
2021/05/25 22:46:03;;;;;;;1.05;0.68;;;8.80;99.90;;;;;;20845131;28;20036;-79
2021/05/25 22:56:04;;;;;;;2.53;0.90;;;8.70;99.90;;;;;;20844812;28;20029;-78
2021/05/25 23:06:05;;;;;;;1.03;0.60;;;8.90;99.90;;;;;;20821038;22;20149;-80
2021/05/25 23:16:06;;;;;;;1.33;1.00;;;8.90;99.90;;;;;;20779817;28;20109;-80
2021/05/25 23:26:07;;;;;;;1.10;0.67;;;8.80;99.90;;;;;;20801871;28;20060;-80
2021/05/25 23:36:08;;;;;;;1.60;0.90;;;8.50;99.90;;;;;;20781856;28;20025;-80
2021/05/25 23:46:09;;;;;;;3.87;0.87;;;8.70;99.90;;;;;;20768625;28;20109;-80
2021/05/25 23:56:10;;;;;;;3.63;1.00;;;8.60;99.90;;;;;;20744400;28;20041;-80
